sensor_id;sensor_type;location;lat;lon;timestamp;temperature;humidity
59660;DHT22;45534;52.690;6.268;2023-08-30T00:00:42;13.30;99.90
59660;DHT22;45534;52.690;6.268;2023-08-30T00:03:08;13.30;99.90
59660;DHT22;45534;52.690;6.268;2023-08-30T00:05:33;13.30;99.90
59660;DHT22;45534;52.690;6.268;2023-08-30T00:07:59;13.30;99.90
59660;DHT22;45534;52.690;6.268;2023-08-30T00:10:25;13.30;99.90
59660;DHT22;45534;52.690;6.268;2023-08-30T00:12:50;13.30;99.90
59660;DHT22;45534;52.690;6.268;2023-08-30T00:15:16;13.30;99.90
59660;DHT22;45534;52.690;6.268;2023-08-30T00:17:42;13.30;99.90
59660;DHT22;45534;52.690;6.268;2023-08-30T00:20:08;13.30;99.90
59660;DHT22;45534;52.690;6.268;2023-08-30T00:22:34;13.30;99.90
59660;DHT22;45534;52.690;6.268;2023-08-30T00:25:01;13.30;99.90
59660;DHT22;45534;52.690;6.268;2023-08-30T00:27:27;13.30;99.90
59660;DHT22;45534;52.690;6.268;2023-08-30T00:29:52;13.20;99.90
59660;DHT22;45534;52.690;6.268;2023-08-30T00:32:18;13.20;99.90
59660;DHT22;45534;52.690;6.268;2023-08-30T00:34:44;13.20;99.90
59660;DHT22;45534;52.690;6.268;2023-08-30T00:37:09;13.20;99.90
59660;DHT22;45534;52.690;6.268;2023-08-30T00:39:38;13.20;99.90
59660;DHT22;45534;52.690;6.268;2023-08-30T00:42:05;13.10;99.90
59660;DHT22;45534;52.690;6.268;2023-08-30T00:44:33;13.10;99.90
59660;DHT22;45534;52.690;6.268;2023-08-30T00:47:00;13.10;99.90
59660;DHT22;45534;52.690;6.268;2023-08-30T00:49:27;13.10;99.90
59660;DHT22;45534;52.690;6.268;2023-08-30T00:51:54;13.10;99.90
59660;DHT22;45534;52.690;6.268;2023-08-30T00:54:20;13.10;99.90
59660;DHT22;45534;52.690;6.268;2023-08-30T00:56:46;13.10;99.90
59660;DHT22;45534;52.690;6.268;2023-08-30T00:59:13;13.10;99.90
59660;DHT22;45534;52.690;6.268;2023-08-30T01:01:40;13.10;99.90
59660;DHT22;45534;52.690;6.268;2023-08-30T01:04:06;13.10;99.90
59660;DHT22;45534;52.690;6.268;2023-08-30T01:06:33;13.10;99.90
59660;DHT22;45534;52.690;6.268;2023-08-30T01:09:01;13.10;99.90
59660;DHT22;45534;52.690;6.268;2023-08-30T01:11:36;13.10;99.90
59660;DHT22;45534;52.690;6.268;2023-08-30T01:14:08;13.10;99.90
59660;DHT22;45534;52.690;6.268;2023-08-30T01:16:35;13.10;99.90
59660;DHT22;45534;52.690;6.268;2023-08-30T01:19:11;13.10;99.90
59660;DHT22;45534;52.690;6.268;2023-08-30T01:24:44;13.20;99.90
59660;DHT22;45534;52.690;6.268;2023-08-30T01:27:12;13.20;99.90
59660;DHT22;45534;52.690;6.268;2023-08-30T01:29:40;13.20;99.90
59660;DHT22;45534;52.690;6.268;2023-08-30T01:32:08;13.20;99.90
59660;DHT22;45534;52.690;6.268;2023-08-30T01:34:37;13.20;99.90
59660;DHT22;45534;52.690;6.268;2023-08-30T01:37:08;13.20;99.90
59660;DHT22;45534;52.690;6.268;2023-08-30T01:39:37;13.20;99.90
59660;DHT22;45534;52.690;6.268;2023-08-30T01:42:04;13.20;99.90
59660;DHT22;45534;52.690;6.268;2023-08-30T01:44:30;13.20;99.90
59660;DHT22;45534;52.690;6.268;2023-08-30T01:46:58;13.30;99.90
59660;DHT22;45534;52.690;6.268;2023-08-30T01:49:24;13.30;99.90
59660;DHT22;45534;52.690;6.268;2023-08-30T01:51:51;13.30;99.90
59660;DHT22;45534;52.690;6.268;2023-08-30T01:54:18;13.30;99.90
59660;DHT22;45534;52.690;6.268;2023-08-30T01:56:45;13.30;99.90
59660;DHT22;45534;52.690;6.268;2023-08-30T01:59:12;13.30;99.90
59660;DHT22;45534;52.690;6.268;2023-08-30T02:01:37;13.30;99.90
59660;DHT22;45534;52.690;6.268;2023-08-30T02:04:03;13.30;99.90
59660;DHT22;45534;52.690;6.268;2023-08-30T02:06:39;13.40;99.90
59660;DHT22;45534;52.690;6.268;2023-08-30T02:11:49;13.30;99.90
59660;DHT22;45534;52.690;6.268;2023-08-30T02:14:16;13.30;99.90
59660;DHT22;45534;52.690;6.268;2023-08-30T02:16:45;13.30;99.90
59660;DHT22;45534;52.690;6.268;2023-08-30T02:19:11;13.30;99.90
59660;DHT22;45534;52.690;6.268;2023-08-30T02:21:40;13.20;99.90
59660;DHT22;45534;52.690;6.268;2023-08-30T02:24:06;13.10;99.90
59660;DHT22;45534;52.690;6.268;2023-08-30T02:26:31;13.10;99.90
59660;DHT22;45534;52.690;6.268;2023-08-30T02:28:57;13.00;99.90
59660;DHT22;45534;52.690;6.268;2023-08-30T02:31:23;13.00;99.90
59660;DHT22;45534;52.690;6.268;2023-08-30T02:33:48;12.90;99.90
59660;DHT22;45534;52.690;6.268;2023-08-30T02:36:14;12.90;99.90
59660;DHT22;45534;52.690;6.268;2023-08-30T02:38:40;12.80;99.90
59660;DHT22;45534;52.690;6.268;2023-08-30T02:41:05;12.80;99.90
59660;DHT22;45534;52.690;6.268;2023-08-30T02:43:31;12.80;99.90
59660;DHT22;45534;52.690;6.268;2023-08-30T02:45:56;12.70;99.90
59660;DHT22;45534;52.690;6.268;2023-08-30T02:48:22;12.70;99.90
59660;DHT22;45534;52.690;6.268;2023-08-30T02:50:48;12.70;99.90
59660;DHT22;45534;52.690;6.268;2023-08-30T02:53:14;12.70;99.90
59660;DHT22;45534;52.690;6.268;2023-08-30T02:55:39;12.70;99.90
59660;DHT22;45534;52.690;6.268;2023-08-30T02:58:05;12.70;99.90
59660;DHT22;45534;52.690;6.268;2023-08-30T03:00:30;12.70;99.90
59660;DHT22;45534;52.690;6.268;2023-08-30T03:02:56;12.70;99.90
59660;DHT22;45534;52.690;6.268;2023-08-30T03:05:22;12.70;99.90
59660;DHT22;45534;52.690;6.268;2023-08-30T03:07:48;12.80;99.90
59660;DHT22;45534;52.690;6.268;2023-08-30T03:10:13;12.70;99.90
59660;DHT22;45534;52.690;6.268;2023-08-30T03:12:39;12.80;99.90
59660;DHT22;45534;52.690;6.268;2023-08-30T03:15:05;12.80;99.90
59660;DHT22;45534;52.690;6.268;2023-08-30T03:17:31;12.80;99.90
59660;DHT22;45534;52.690;6.268;2023-08-30T03:19:57;12.80;99.90
59660;DHT22;45534;52.690;6.268;2023-08-30T03:22:22;12.80;99.90
59660;DHT22;45534;52.690;6.268;2023-08-30T03:24:48;12.80;99.90
59660;DHT22;45534;52.690;6.268;2023-08-30T03:27:16;12.90;99.90
59660;DHT22;45534;52.690;6.268;2023-08-30T03:29:42;12.90;99.90
59660;DHT22;45534;52.690;6.268;2023-08-30T03:32:07;12.90;99.90
59660;DHT22;45534;52.690;6.268;2023-08-30T03:34:33;12.90;99.90
59660;DHT22;45534;52.690;6.268;2023-08-30T03:36:58;12.90;99.90
59660;DHT22;45534;52.690;6.268;2023-08-30T03:39:24;12.90;99.90
59660;DHT22;45534;52.690;6.268;2023-08-30T03:41:50;12.90;99.90
59660;DHT22;45534;52.690;6.268;2023-08-30T03:44:16;13.00;99.90
59660;DHT22;45534;52.690;6.268;2023-08-30T03:46:42;13.00;99.90
59660;DHT22;45534;52.690;6.268;2023-08-30T03:49:07;13.00;99.90
59660;DHT22;45534;52.690;6.268;2023-08-30T03:51:33;13.00;99.90
59660;DHT22;45534;52.690;6.268;2023-08-30T03:54:00;13.00;99.90
59660;DHT22;45534;52.690;6.268;2023-08-30T03:56:25;13.00;99.90
59660;DHT22;45534;52.690;6.268;2023-08-30T03:58:51;13.10;99.90
59660;DHT22;45534;52.690;6.268;2023-08-30T04:01:17;13.10;99.90
59660;DHT22;45534;52.690;6.268;2023-08-30T04:03:42;13.10;99.90
59660;DHT22;45534;52.690;6.268;2023-08-30T04:06:08;13.10;99.90
59660;DHT22;45534;52.690;6.268;2023-08-30T04:08:34;13.10;99.90
59660;DHT22;45534;52.690;6.268;2023-08-30T04:10:59;13.10;99.90
59660;DHT22;45534;52.690;6.268;2023-08-30T04:13:25;13.20;99.90
59660;DHT22;45534;52.690;6.268;2023-08-30T04:15:51;13.20;99.90
59660;DHT22;45534;52.690;6.268;2023-08-30T04:18:17;13.10;99.90
59660;DHT22;45534;52.690;6.268;2023-08-30T04:20:46;13.10;99.90
59660;DHT22;45534;52.690;6.268;2023-08-30T04:23:12;13.10;99.90
59660;DHT22;45534;52.690;6.268;2023-08-30T04:25:38;13.10;99.90
59660;DHT22;45534;52.690;6.268;2023-08-30T04:28:04;13.20;99.90
59660;DHT22;45534;52.690;6.268;2023-08-30T04:30:30;13.10;99.90
59660;DHT22;45534;52.690;6.268;2023-08-30T04:32:56;13.20;99.90
59660;DHT22;45534;52.690;6.268;2023-08-30T04:35:22;13.20;99.90
59660;DHT22;45534;52.690;6.268;2023-08-30T04:37:48;13.20;99.90
59660;DHT22;45534;52.690;6.268;2023-08-30T04:40:16;13.20;99.90
59660;DHT22;45534;52.690;6.268;2023-08-30T04:42:41;13.20;99.90
59660;DHT22;45534;52.690;6.268;2023-08-30T04:45:08;13.20;99.90
59660;DHT22;45534;52.690;6.268;2023-08-30T04:47:35;13.20;99.90
59660;DHT22;45534;52.690;6.268;2023-08-30T04:50:00;13.30;99.90
59660;DHT22;45534;52.690;6.268;2023-08-30T04:52:26;13.20;99.90
59660;DHT22;45534;52.690;6.268;2023-08-30T04:54:52;13.20;99.90
59660;DHT22;45534;52.690;6.268;2023-08-30T04:57:18;13.30;99.90
59660;DHT22;45534;52.690;6.268;2023-08-30T04:59:44;13.30;99.90
59660;DHT22;45534;52.690;6.268;2023-08-30T05:02:11;13.30;99.90
59660;DHT22;45534;52.690;6.268;2023-08-30T05:04:36;13.30;99.90
59660;DHT22;45534;52.690;6.268;2023-08-30T05:07:02;13.30;99.90
59660;DHT22;45534;52.690;6.268;2023-08-30T05:09:30;13.30;99.90
59660;DHT22;45534;52.690;6.268;2023-08-30T05:11:56;13.30;99.90
59660;DHT22;45534;52.690;6.268;2023-08-30T05:14:21;13.30;99.90
59660;DHT22;45534;52.690;6.268;2023-08-30T05:16:49;13.40;99.90
59660;DHT22;45534;52.690;6.268;2023-08-30T05:19:14;13.40;99.90
59660;DHT22;45534;52.690;6.268;2023-08-30T05:21:42;13.40;99.90
59660;DHT22;45534;52.690;6.268;2023-08-30T05:24:08;13.40;99.90
59660;DHT22;45534;52.690;6.268;2023-08-30T05:26:34;13.40;99.90
59660;DHT22;45534;52.690;6.268;2023-08-30T05:29:00;13.50;99.90
59660;DHT22;45534;52.690;6.268;2023-08-30T05:31:25;13.50;99.90
59660;DHT22;45534;52.690;6.268;2023-08-30T05:33:51;13.50;99.90
59660;DHT22;45534;52.690;6.268;2023-08-30T05:36:17;13.50;99.90
59660;DHT22;45534;52.690;6.268;2023-08-30T05:38:43;13.60;99.90
59660;DHT22;45534;52.690;6.268;2023-08-30T05:41:09;13.60;99.90
59660;DHT22;45534;52.690;6.268;2023-08-30T05:43:35;13.60;99.90
59660;DHT22;45534;52.690;6.268;2023-08-30T05:46:01;13.60;99.90
59660;DHT22;45534;52.690;6.268;2023-08-30T05:48:32;13.60;99.90
59660;DHT22;45534;52.690;6.268;2023-08-30T05:50:58;13.70;99.90
59660;DHT22;45534;52.690;6.268;2023-08-30T05:53:24;13.70;99.90
59660;DHT22;45534;52.690;6.268;2023-08-30T05:55:49;13.70;99.90
59660;DHT22;45534;52.690;6.268;2023-08-30T05:58:15;13.70;99.90
59660;DHT22;45534;52.690;6.268;2023-08-30T06:00:43;13.70;99.90
59660;DHT22;45534;52.690;6.268;2023-08-30T06:03:08;13.80;99.90
59660;DHT22;45534;52.690;6.268;2023-08-30T06:05:34;13.80;99.90
59660;DHT22;45534;52.690;6.268;2023-08-30T06:08:00;13.80;99.90
59660;DHT22;45534;52.690;6.268;2023-08-30T06:10:26;13.90;99.90
59660;DHT22;45534;52.690;6.268;2023-08-30T06:12:52;13.90;99.90
59660;DHT22;45534;52.690;6.268;2023-08-30T06:15:18;13.90;99.90
59660;DHT22;45534;52.690;6.268;2023-08-30T06:17:44;13.90;99.90
59660;DHT22;45534;52.690;6.268;2023-08-30T06:20:11;14.00;99.90
59660;DHT22;45534;52.690;6.268;2023-08-30T06:22:37;14.00;99.90
59660;DHT22;45534;52.690;6.268;2023-08-30T06:25:03;14.00;99.90
59660;DHT22;45534;52.690;6.268;2023-08-30T06:27:30;14.10;99.90
59660;DHT22;45534;52.690;6.268;2023-08-30T06:29:55;14.10;99.90
59660;DHT22;45534;52.690;6.268;2023-08-30T06:32:21;14.10;99.90
59660;DHT22;45534;52.690;6.268;2023-08-30T06:34:47;14.20;99.90
59660;DHT22;45534;52.690;6.268;2023-08-30T06:37:12;14.20;99.90
59660;DHT22;45534;52.690;6.268;2023-08-30T06:39:38;14.20;99.90
59660;DHT22;45534;52.690;6.268;2023-08-30T06:42:04;14.20;99.90
59660;DHT22;45534;52.690;6.268;2023-08-30T06:44:30;14.20;99.90
59660;DHT22;45534;52.690;6.268;2023-08-30T06:46:58;14.20;99.90
59660;DHT22;45534;52.690;6.268;2023-08-30T06:49:24;14.20;99.90
59660;DHT22;45534;52.690;6.268;2023-08-30T06:51:50;14.10;99.90
59660;DHT22;45534;52.690;6.268;2023-08-30T06:54:16;14.10;99.90
59660;DHT22;45534;52.690;6.268;2023-08-30T06:56:56;14.10;99.90
59660;DHT22;45534;52.690;6.268;2023-08-30T06:59:22;14.10;99.90
59660;DHT22;45534;52.690;6.268;2023-08-30T07:01:48;14.10;99.90
59660;DHT22;45534;52.690;6.268;2023-08-30T07:04:13;14.20;99.90
59660;DHT22;45534;52.690;6.268;2023-08-30T07:06:39;14.20;99.90
59660;DHT22;45534;52.690;6.268;2023-08-30T07:09:05;14.30;99.90
59660;DHT22;45534;52.690;6.268;2023-08-30T07:11:31;14.40;99.90
59660;DHT22;45534;52.690;6.268;2023-08-30T07:13:57;14.50;99.90
59660;DHT22;45534;52.690;6.268;2023-08-30T07:16:23;14.60;99.90
59660;DHT22;45534;52.690;6.268;2023-08-30T07:18:49;14.70;99.90
59660;DHT22;45534;52.690;6.268;2023-08-30T07:21:15;14.80;99.90
59660;DHT22;45534;52.690;6.268;2023-08-30T07:23:41;14.90;99.90
59660;DHT22;45534;52.690;6.268;2023-08-30T07:26:06;15.10;99.90
59660;DHT22;45534;52.690;6.268;2023-08-30T07:28:32;15.20;99.90
59660;DHT22;45534;52.690;6.268;2023-08-30T07:31:04;15.20;99.90
59660;DHT22;45534;52.690;6.268;2023-08-30T07:33:30;15.20;99.90
59660;DHT22;45534;52.690;6.268;2023-08-30T07:35:56;15.20;99.90
59660;DHT22;45534;52.690;6.268;2023-08-30T07:38:22;15.20;99.90
59660;DHT22;45534;52.690;6.268;2023-08-30T07:40:48;15.20;99.90
59660;DHT22;45534;52.690;6.268;2023-08-30T07:43:14;15.10;99.90
59660;DHT22;45534;52.690;6.268;2023-08-30T07:45:39;15.10;99.90
59660;DHT22;45534;52.690;6.268;2023-08-30T07:48:05;15.20;99.90
59660;DHT22;45534;52.690;6.268;2023-08-30T07:50:31;15.20;99.90
59660;DHT22;45534;52.690;6.268;2023-08-30T07:52:56;15.20;99.90
59660;DHT22;45534;52.690;6.268;2023-08-30T07:55:22;15.20;99.90
59660;DHT22;45534;52.690;6.268;2023-08-30T07:57:48;15.20;99.90
59660;DHT22;45534;52.690;6.268;2023-08-30T08:00:14;15.20;99.90
59660;DHT22;45534;52.690;6.268;2023-08-30T08:02:40;15.20;99.90
59660;DHT22;45534;52.690;6.268;2023-08-30T08:05:06;15.20;99.90
59660;DHT22;45534;52.690;6.268;2023-08-30T08:07:32;15.10;99.90
59660;DHT22;45534;52.690;6.268;2023-08-30T08:09:58;15.10;99.90
59660;DHT22;45534;52.690;6.268;2023-08-30T08:12:23;15.00;99.90
59660;DHT22;45534;52.690;6.268;2023-08-30T08:14:49;15.00;99.90
59660;DHT22;45534;52.690;6.268;2023-08-30T08:17:15;15.00;99.90
59660;DHT22;45534;52.690;6.268;2023-08-30T08:19:41;15.00;99.90
59660;DHT22;45534;52.690;6.268;2023-08-30T08:22:08;14.90;99.90
59660;DHT22;45534;52.690;6.268;2023-08-30T08:24:34;14.80;99.90
59660;DHT22;45534;52.690;6.268;2023-08-30T08:26:59;14.80;99.90
59660;DHT22;45534;52.690;6.268;2023-08-30T08:29:27;14.70;99.90
59660;DHT22;45534;52.690;6.268;2023-08-30T08:31:53;14.60;99.90
59660;DHT22;45534;52.690;6.268;2023-08-30T08:34:19;14.60;99.90
59660;DHT22;45534;52.690;6.268;2023-08-30T08:36:45;14.50;99.90
59660;DHT22;45534;52.690;6.268;2023-08-30T08:39:10;14.40;99.90
59660;DHT22;45534;52.690;6.268;2023-08-30T08:41:41;14.40;99.90
59660;DHT22;45534;52.690;6.268;2023-08-30T08:44:08;14.30;99.90
59660;DHT22;45534;52.690;6.268;2023-08-30T08:46:39;14.20;99.90
59660;DHT22;45534;52.690;6.268;2023-08-30T08:49:13;14.20;99.90
59660;DHT22;45534;52.690;6.268;2023-08-30T08:51:39;14.10;99.90
59660;DHT22;45534;52.690;6.268;2023-08-30T08:54:06;14.10;99.90
59660;DHT22;45534;52.690;6.268;2023-08-30T08:56:32;14.10;99.90
59660;DHT22;45534;52.690;6.268;2023-08-30T08:59:02;14.00;99.90
59660;DHT22;45534;52.690;6.268;2023-08-30T09:01:28;14.00;99.90
59660;DHT22;45534;52.690;6.268;2023-08-30T09:03:54;13.90;99.90
59660;DHT22;45534;52.690;6.268;2023-08-30T09:06:21;13.90;99.90
59660;DHT22;45534;52.690;6.268;2023-08-30T09:08:46;13.90;99.90
59660;DHT22;45534;52.690;6.268;2023-08-30T09:11:12;13.90;99.90
59660;DHT22;45534;52.690;6.268;2023-08-30T09:13:38;13.90;99.90
59660;DHT22;45534;52.690;6.268;2023-08-30T09:16:16;13.90;99.90
59660;DHT22;45534;52.690;6.268;2023-08-30T09:18:42;14.00;99.90
59660;DHT22;45534;52.690;6.268;2023-08-30T09:21:09;14.10;99.90
59660;DHT22;45534;52.690;6.268;2023-08-30T09:23:35;14.10;99.90
59660;DHT22;45534;52.690;6.268;2023-08-30T09:26:01;14.10;99.90
59660;DHT22;45534;52.690;6.268;2023-08-30T09:28:28;14.20;99.90
59660;DHT22;45534;52.690;6.268;2023-08-30T09:30:53;14.20;99.90
59660;DHT22;45534;52.690;6.268;2023-08-30T09:33:37;14.30;99.90
59660;DHT22;45534;52.690;6.268;2023-08-30T09:36:10;14.40;99.90
59660;DHT22;45534;52.690;6.268;2023-08-30T09:38:37;14.50;99.90
59660;DHT22;45534;52.690;6.268;2023-08-30T09:41:03;14.70;99.90
59660;DHT22;45534;52.690;6.268;2023-08-30T09:43:30;14.80;99.90
59660;DHT22;45534;52.690;6.268;2023-08-30T09:45:57;14.90;99.90
59660;DHT22;45534;52.690;6.268;2023-08-30T09:48:28;15.00;99.90
59660;DHT22;45534;52.690;6.268;2023-08-30T09:50:57;15.20;99.90
59660;DHT22;45534;52.690;6.268;2023-08-30T09:53:25;15.40;99.90
59660;DHT22;45534;52.690;6.268;2023-08-30T09:55:54;15.50;99.90
59660;DHT22;45534;52.690;6.268;2023-08-30T09:58:23;15.60;99.90
59660;DHT22;45534;52.690;6.268;2023-08-30T10:00:53;15.60;99.90
59660;DHT22;45534;52.690;6.268;2023-08-30T10:03:19;15.60;99.90
59660;DHT22;45534;52.690;6.268;2023-08-30T10:05:46;15.60;99.90
59660;DHT22;45534;52.690;6.268;2023-08-30T10:08:14;15.50;99.90
59660;DHT22;45534;52.690;6.268;2023-08-30T10:10:40;15.40;99.90
59660;DHT22;45534;52.690;6.268;2023-08-30T10:13:06;15.30;99.90
59660;DHT22;45534;52.690;6.268;2023-08-30T10:15:36;15.20;99.90
59660;DHT22;45534;52.690;6.268;2023-08-30T10:18:07;15.10;99.90
59660;DHT22;45534;52.690;6.268;2023-08-30T10:20:33;15.00;99.90
59660;DHT22;45534;52.690;6.268;2023-08-30T10:23:00;14.90;99.90
59660;DHT22;45534;52.690;6.268;2023-08-30T10:25:28;14.90;99.90
59660;DHT22;45534;52.690;6.268;2023-08-30T10:27:56;14.90;99.90
59660;DHT22;45534;52.690;6.268;2023-08-30T10:30:22;14.90;99.90
59660;DHT22;45534;52.690;6.268;2023-08-30T10:32:49;14.80;99.90
59660;DHT22;45534;52.690;6.268;2023-08-30T10:35:17;14.80;99.90
59660;DHT22;45534;52.690;6.268;2023-08-30T10:37:57;14.80;99.90
59660;DHT22;45534;52.690;6.268;2023-08-30T10:40:24;14.80;99.90
59660;DHT22;45534;52.690;6.268;2023-08-30T10:43:02;14.80;99.90
59660;DHT22;45534;52.690;6.268;2023-08-30T10:45:28;14.70;99.90
59660;DHT22;45534;52.690;6.268;2023-08-30T10:47:57;14.70;99.90
59660;DHT22;45534;52.690;6.268;2023-08-30T10:50:30;14.70;99.90
59660;DHT22;45534;52.690;6.268;2023-08-30T10:52:56;14.70;99.90
59660;DHT22;45534;52.690;6.268;2023-08-30T10:55:22;14.70;99.90
59660;DHT22;45534;52.690;6.268;2023-08-30T10:58:01;14.70;99.90
59660;DHT22;45534;52.690;6.268;2023-08-30T11:00:29;14.70;99.90
59660;DHT22;45534;52.690;6.268;2023-08-30T11:02:55;14.70;99.90
59660;DHT22;45534;52.690;6.268;2023-08-30T11:05:23;14.70;99.90
59660;DHT22;45534;52.690;6.268;2023-08-30T11:07:49;14.70;99.90
59660;DHT22;45534;52.690;6.268;2023-08-30T11:10:16;14.70;99.90
59660;DHT22;45534;52.690;6.268;2023-08-30T11:12:43;14.70;99.90
59660;DHT22;45534;52.690;6.268;2023-08-30T11:15:10;14.70;99.90
59660;DHT22;45534;52.690;6.268;2023-08-30T11:17:36;14.70;99.90
59660;DHT22;45534;52.690;6.268;2023-08-30T11:20:06;14.70;99.90
59660;DHT22;45534;52.690;6.268;2023-08-30T11:22:40;14.70;99.90
59660;DHT22;45534;52.690;6.268;2023-08-30T11:25:08;14.70;99.90
59660;DHT22;45534;52.690;6.268;2023-08-30T11:27:34;14.70;99.90
59660;DHT22;45534;52.690;6.268;2023-08-30T11:30:00;14.70;99.90
59660;DHT22;45534;52.690;6.268;2023-08-30T11:32:32;14.70;99.90
59660;DHT22;45534;52.690;6.268;2023-08-30T11:34:58;14.70;99.90
59660;DHT22;45534;52.690;6.268;2023-08-30T11:37:26;14.70;99.90
59660;DHT22;45534;52.690;6.268;2023-08-30T11:39:53;14.60;99.90
59660;DHT22;45534;52.690;6.268;2023-08-30T11:42:20;14.60;99.90
59660;DHT22;45534;52.690;6.268;2023-08-30T11:44:46;14.60;99.90
59660;DHT22;45534;52.690;6.268;2023-08-30T11:47:24;14.60;99.90
59660;DHT22;45534;52.690;6.268;2023-08-30T11:49:52;14.70;99.90
59660;DHT22;45534;52.690;6.268;2023-08-30T11:52:19;14.70;99.90
59660;DHT22;45534;52.690;6.268;2023-08-30T11:54:47;14.80;99.90
59660;DHT22;45534;52.690;6.268;2023-08-30T11:57:13;14.90;99.90
59660;DHT22;45534;52.690;6.268;2023-08-30T11:59:39;15.00;99.90
59660;DHT22;45534;52.690;6.268;2023-08-30T12:02:06;15.00;99.90
59660;DHT22;45534;52.690;6.268;2023-08-30T12:04:32;15.10;99.90
59660;DHT22;45534;52.690;6.268;2023-08-30T12:06:58;15.10;99.90
59660;DHT22;45534;52.690;6.268;2023-08-30T12:09:34;15.20;99.90
59660;DHT22;45534;52.690;6.268;2023-08-30T12:12:10;15.20;99.90
59660;DHT22;45534;52.690;6.268;2023-08-30T12:14:39;15.30;99.90
59660;DHT22;45534;52.690;6.268;2023-08-30T12:17:05;15.40;99.90
59660;DHT22;45534;52.690;6.268;2023-08-30T12:19:31;15.50;99.90
59660;DHT22;45534;52.690;6.268;2023-08-30T12:22:03;15.50;99.90
59660;DHT22;45534;52.690;6.268;2023-08-30T12:24:43;15.50;99.90
59660;DHT22;45534;52.690;6.268;2023-08-30T12:27:09;15.50;99.90
59660;DHT22;45534;52.690;6.268;2023-08-30T12:29:35;15.50;99.90
59660;DHT22;45534;52.690;6.268;2023-08-30T12:32:00;15.40;99.90
59660;DHT22;45534;52.690;6.268;2023-08-30T12:34:26;15.40;99.90
59660;DHT22;45534;52.690;6.268;2023-08-30T12:36:52;15.30;99.90
59660;DHT22;45534;52.690;6.268;2023-08-30T12:39:17;15.30;99.90
59660;DHT22;45534;52.690;6.268;2023-08-30T12:41:43;15.20;99.90
59660;DHT22;45534;52.690;6.268;2023-08-30T12:44:09;15.20;99.90
59660;DHT22;45534;52.690;6.268;2023-08-30T12:46:34;15.20;99.90
59660;DHT22;45534;52.690;6.268;2023-08-30T12:49:00;15.20;99.90
59660;DHT22;45534;52.690;6.268;2023-08-30T12:51:26;15.10;99.90
59660;DHT22;45534;52.690;6.268;2023-08-30T12:53:51;15.00;99.90
59660;DHT22;45534;52.690;6.268;2023-08-30T12:56:17;15.00;99.90
59660;DHT22;45534;52.690;6.268;2023-08-30T12:58:43;15.10;99.90
59660;DHT22;45534;52.690;6.268;2023-08-30T13:01:09;15.20;99.90
59660;DHT22;45534;52.690;6.268;2023-08-30T13:03:34;15.40;99.90
59660;DHT22;45534;52.690;6.268;2023-08-30T13:06:00;15.50;99.90
59660;DHT22;45534;52.690;6.268;2023-08-30T13:08:27;15.60;99.90
59660;DHT22;45534;52.690;6.268;2023-08-30T13:10:52;15.90;99.90
59660;DHT22;45534;52.690;6.268;2023-08-30T13:13:18;16.20;99.90
59660;DHT22;45534;52.690;6.268;2023-08-30T13:15:44;16.50;99.90
59660;DHT22;45534;52.690;6.268;2023-08-30T13:18:10;16.60;99.90
59660;DHT22;45534;52.690;6.268;2023-08-30T13:20:39;17.10;99.90
59660;DHT22;45534;52.690;6.268;2023-08-30T13:23:05;17.60;99.90
59660;DHT22;45534;52.690;6.268;2023-08-30T13:25:30;17.90;99.90
59660;DHT22;45534;52.690;6.268;2023-08-30T13:27:56;17.80;99.90
59660;DHT22;45534;52.690;6.268;2023-08-30T13:30:22;17.80;99.90
59660;DHT22;45534;52.690;6.268;2023-08-30T13:32:47;17.70;99.90
59660;DHT22;45534;52.690;6.268;2023-08-30T13:35:13;17.50;99.90
59660;DHT22;45534;52.690;6.268;2023-08-30T13:37:38;17.40;99.90
59660;DHT22;45534;52.690;6.268;2023-08-30T13:40:05;17.40;99.90
59660;DHT22;45534;52.690;6.268;2023-08-30T13:42:32;17.60;99.90
59660;DHT22;45534;52.690;6.268;2023-08-30T13:44:58;17.90;99.90
59660;DHT22;45534;52.690;6.268;2023-08-30T13:47:24;18.20;99.90
59660;DHT22;45534;52.690;6.268;2023-08-30T13:49:49;18.40;99.90
59660;DHT22;45534;52.690;6.268;2023-08-30T13:52:15;18.80;99.90
59660;DHT22;45534;52.690;6.268;2023-08-30T13:54:41;19.10;99.90
59660;DHT22;45534;52.690;6.268;2023-08-30T13:57:07;19.20;99.90
59660;DHT22;45534;52.690;6.268;2023-08-30T13:59:33;19.10;99.90
59660;DHT22;45534;52.690;6.268;2023-08-30T14:02:02;19.50;99.90
59660;DHT22;45534;52.690;6.268;2023-08-30T14:04:29;19.60;99.90
59660;DHT22;45534;52.690;6.268;2023-08-30T14:06:57;19.40;99.90
59660;DHT22;45534;52.690;6.268;2023-08-30T14:09:23;19.10;99.90
59660;DHT22;45534;52.690;6.268;2023-08-30T14:11:49;19.00;99.90
59660;DHT22;45534;52.690;6.268;2023-08-30T14:14:15;19.00;99.90
59660;DHT22;45534;52.690;6.268;2023-08-30T14:16:41;19.20;99.90
59660;DHT22;45534;52.690;6.268;2023-08-30T14:19:07;19.50;99.90
59660;DHT22;45534;52.690;6.268;2023-08-30T14:21:32;19.50;99.90
59660;DHT22;45534;52.690;6.268;2023-08-30T14:23:58;19.20;99.90
59660;DHT22;45534;52.690;6.268;2023-08-30T14:26:26;19.50;99.90
59660;DHT22;45534;52.690;6.268;2023-08-30T14:28:53;20.20;99.90
59660;DHT22;45534;52.690;6.268;2023-08-30T14:31:18;20.80;99.90
59660;DHT22;45534;52.690;6.268;2023-08-30T14:33:45;21.10;99.90
59660;DHT22;45534;52.690;6.268;2023-08-30T14:36:10;21.20;99.90
59660;DHT22;45534;52.690;6.268;2023-08-30T14:38:36;20.90;99.90
59660;DHT22;45534;52.690;6.268;2023-08-30T14:41:02;20.70;99.90
59660;DHT22;45534;52.690;6.268;2023-08-30T14:43:29;20.70;99.90
59660;DHT22;45534;52.690;6.268;2023-08-30T14:46:01;20.50;99.90
59660;DHT22;45534;52.690;6.268;2023-08-30T14:48:27;19.90;99.90
59660;DHT22;45534;52.690;6.268;2023-08-30T14:50:53;19.40;99.90
59660;DHT22;45534;52.690;6.268;2023-08-30T14:53:19;18.90;99.90
59660;DHT22;45534;52.690;6.268;2023-08-30T14:55:45;18.50;99.90
59660;DHT22;45534;52.690;6.268;2023-08-30T14:58:11;18.20;99.90
59660;DHT22;45534;52.690;6.268;2023-08-30T15:00:37;18.00;99.90
59660;DHT22;45534;52.690;6.268;2023-08-30T15:03:03;17.70;99.90
59660;DHT22;45534;52.690;6.268;2023-08-30T15:05:29;17.60;99.90
59660;DHT22;45534;52.690;6.268;2023-08-30T15:07:54;17.50;99.90
59660;DHT22;45534;52.690;6.268;2023-08-30T15:10:20;17.50;99.90
59660;DHT22;45534;52.690;6.268;2023-08-30T15:12:46;17.60;99.90
59660;DHT22;45534;52.690;6.268;2023-08-30T15:15:11;17.70;99.90
59660;DHT22;45534;52.690;6.268;2023-08-30T15:17:37;17.70;99.90
59660;DHT22;45534;52.690;6.268;2023-08-30T15:20:03;17.80;99.90
59660;DHT22;45534;52.690;6.268;2023-08-30T15:22:29;17.80;99.90
59660;DHT22;45534;52.690;6.268;2023-08-30T15:24:55;17.70;99.90
59660;DHT22;45534;52.690;6.268;2023-08-30T15:27:20;17.60;99.90
59660;DHT22;45534;52.690;6.268;2023-08-30T15:29:47;17.50;99.90
59660;DHT22;45534;52.690;6.268;2023-08-30T15:32:17;17.50;99.90